createdAt,value
2019-06-20T00:01:33.132Z,3.00
2019-06-20T00:03:59.369Z,4.87
2019-06-20T00:06:25.736Z,3.20
2019-06-20T00:08:52.231Z,3.40
2019-06-20T00:11:18.585Z,3.40
2019-06-20T00:13:45.241Z,3.75
2019-06-20T00:16:11.664Z,3.35
2019-06-20T00:18:38.092Z,3.35
2019-06-20T00:21:04.449Z,3.10
2019-06-20T00:23:30.701Z,4.60
2019-06-20T00:25:56.940Z,3.30
2019-06-20T00:28:23.189Z,4.67
2019-06-20T00:30:49.441Z,3.67
2019-06-20T00:33:15.703Z,3.58
2019-06-20T00:35:41.967Z,4.10
2019-06-20T00:38:08.267Z,3.40
2019-06-20T00:40:34.686Z,4.17
2019-06-20T00:43:16.170Z,3.98
2019-06-20T00:45:29.561Z,7.03
2019-06-20T00:47:56.022Z,3.72
2019-06-20T00:50:22.365Z,3.70
2019-06-20T00:52:48.609Z,4.92
2019-06-20T00:55:15.652Z,3.62
2019-06-20T00:57:42.122Z,4.17
2019-06-20T01:00:10.287Z,4.87
2019-06-20T01:02:36.633Z,4.10
2019-06-20T01:05:04.677Z,5.17
2019-06-20T01:07:31.147Z,3.80
2019-06-20T01:09:57.517Z,3.90
2019-06-20T01:12:23.796Z,4.45
2019-06-20T01:14:50.304Z,4.50
2019-06-20T01:17:16.645Z,4.22
2019-06-20T01:19:42.994Z,4.67
2019-06-20T01:22:09.342Z,4.90
2019-06-20T01:24:35.784Z,4.90
2019-06-20T01:27:01.953Z,5.72
2019-06-20T01:29:28.199Z,4.70
2019-06-20T01:31:54.461Z,6.33
2019-06-20T01:34:20.736Z,4.55
2019-06-20T01:36:46.975Z,5.10
2019-06-20T01:39:13.374Z,5.15
2019-06-20T01:41:39.795Z,5.25
2019-06-20T01:44:06.120Z,4.95
2019-06-20T01:46:32.970Z,5.17
2019-06-20T01:48:59.326Z,5.53
2019-06-20T01:51:25.579Z,6.42
2019-06-20T01:53:51.925Z,4.85
2019-06-20T01:56:18.369Z,5.12
2019-06-20T01:58:44.613Z,5.30
2019-06-20T02:01:11.081Z,7.03
2019-06-20T02:03:37.341Z,5.60
2019-06-20T02:06:03.781Z,6.60
2019-06-20T02:08:30.375Z,4.72
2019-06-20T02:10:56.639Z,6.28
2019-06-20T02:13:22.987Z,5.15
2019-06-20T02:15:49.909Z,6.87
2019-06-20T02:18:16.370Z,5.42
2019-06-20T02:20:49.191Z,5.10
2019-06-20T02:23:15.529Z,5.90
2019-06-20T02:25:41.880Z,5.42
2019-06-20T02:28:08.137Z,5.03
2019-06-20T02:30:34.987Z,6.25
2019-06-20T02:33:01.429Z,5.08
2019-06-20T02:35:27.778Z,5.15
2019-06-20T02:37:54.146Z,5.20
2019-06-20T02:40:20.594Z,5.00
2019-06-20T02:42:47.044Z,4.70
2019-06-20T02:45:13.801Z,5.15
2019-06-20T02:47:40.158Z,5.20
2019-06-20T02:50:08.106Z,5.00
2019-06-20T02:52:34.862Z,5.83
2019-06-20T02:55:01.317Z,4.83
2019-06-20T02:57:27.742Z,5.12
2019-06-20T02:59:54.113Z,4.72
2019-06-20T03:02:20.449Z,5.03
2019-06-20T03:04:46.700Z,6.30
2019-06-20T03:07:13.051Z,6.22
2019-06-20T03:09:39.477Z,4.70
2019-06-20T03:12:05.813Z,4.85
2019-06-20T03:14:44.580Z,5.67
2019-06-20T03:17:00.380Z,5.03
2019-06-20T03:19:26.868Z,4.92
2019-06-20T03:21:53.120Z,5.12
2019-06-20T03:24:19.362Z,4.25
2019-06-20T03:26:45.727Z,4.80
2019-06-20T03:29:11.969Z,4.75
2019-06-20T03:31:38.232Z,4.58
2019-06-20T03:34:04.645Z,5.40
2019-06-20T03:36:31.069Z,4.40
2019-06-20T03:38:57.313Z,4.35
2019-06-20T03:41:23.669Z,4.45
2019-06-20T03:43:49.917Z,4.25
2019-06-20T03:46:16.379Z,5.40
2019-06-20T03:48:42.609Z,3.90
2019-06-20T03:51:08.962Z,4.70
2019-06-20T03:53:35.249Z,3.87
2019-06-20T03:56:01.526Z,4.92
2019-06-20T03:58:27.874Z,4.30
2019-06-20T04:00:54.257Z,4.05
2019-06-20T04:03:20.612Z,5.47
2019-06-20T04:05:46.870Z,4.42
2019-06-20T04:08:13.225Z,4.25
2019-06-20T04:10:39.584Z,3.70
2019-06-20T04:13:05.932Z,4.78
2019-06-20T04:15:32.287Z,5.37
2019-06-20T04:17:58.795Z,4.00
2019-06-20T04:20:25.223Z,5.72
2019-06-20T04:22:51.570Z,3.85
2019-06-20T04:25:17.916Z,3.92
2019-06-20T04:27:44.301Z,4.37
2019-06-20T04:30:11.238Z,4.03
2019-06-20T04:32:37.495Z,3.75
2019-06-20T04:35:04.865Z,4.50
2019-06-20T04:37:31.109Z,4.30
2019-06-20T04:39:57.351Z,8.50
2019-06-20T04:42:23.742Z,4.47
2019-06-20T04:44:51.777Z,4.10
2019-06-20T04:47:18.121Z,3.50
2019-06-20T04:49:44.380Z,6.53
2019-06-20T04:52:10.761Z,4.42
2019-06-20T04:54:37.097Z,4.72
2019-06-20T04:57:03.557Z,4.35
2019-06-20T04:59:29.910Z,5.60
2019-06-20T05:01:56.359Z,4.22
2019-06-20T05:04:22.713Z,3.85
2019-06-20T05:06:55.717Z,3.95
2019-06-20T05:09:21.974Z,3.55
2019-06-20T05:11:48.298Z,5.53
2019-06-20T05:14:14.658Z,3.67
2019-06-20T05:16:40.997Z,4.20
2019-06-20T05:19:07.633Z,3.45
2019-06-20T05:21:33.969Z,4.87
2019-06-20T05:24:00.466Z,4.83
2019-06-20T05:26:26.836Z,4.12
2019-06-20T05:28:53.081Z,4.90
2019-06-20T05:31:19.349Z,4.45
2019-06-20T05:33:45.587Z,5.90
2019-06-20T05:36:11.845Z,3.52
2019-06-20T05:38:38.189Z,5.15
2019-06-20T05:41:04.630Z,6.12
2019-06-20T05:43:30.893Z,6.75
2019-06-20T05:46:08.852Z,7.90
2019-06-20T05:48:25.460Z,8.43
2019-06-20T05:50:51.744Z,5.83
2019-06-20T05:53:17.986Z,6.25
2019-06-20T05:55:44.238Z,6.17
2019-06-20T05:58:10.597Z,5.20
2019-06-20T06:00:37.052Z,5.87
2019-06-20T06:03:06.972Z,3.58
2019-06-20T06:05:31.550Z,4.92
2019-06-20T06:07:58.455Z,4.22
2019-06-20T06:10:25.362Z,5.17
2019-06-20T06:12:51.728Z,5.87
2019-06-20T06:15:18.160Z,4.00
2019-06-20T06:17:44.511Z,6.65
2019-06-20T06:20:11.645Z,3.95
2019-06-20T06:22:37.878Z,3.50
2019-06-20T06:25:05.833Z,3.20
2019-06-20T06:27:32.181Z,4.47
2019-06-20T06:29:58.428Z,5.00
2019-06-20T06:32:39.190Z,4.85
2019-06-20T06:34:53.077Z,6.35
2019-06-20T06:37:19.421Z,5.45
2019-06-20T06:39:45.768Z,16.87
2019-06-20T06:42:12.119Z,6.67
2019-06-20T06:44:38.468Z,4.25
2019-06-20T06:47:04.725Z,5.08
2019-06-20T06:49:31.069Z,5.33
2019-06-20T06:51:57.417Z,4.35
2019-06-20T06:54:23.763Z,4.53
2019-06-20T06:56:50.123Z,4.55
2019-06-20T06:59:16.566Z,6.42
2019-06-20T07:01:43.028Z,4.33
2019-06-20T07:04:09.363Z,6.00
2019-06-20T07:06:35.745Z,6.90
2019-06-20T07:09:05.266Z,5.20
2019-06-20T07:11:31.541Z,3.62
2019-06-20T07:13:59.015Z,3.80
2019-06-20T07:16:25.416Z,5.22
2019-06-20T07:18:51.812Z,6.00
2019-06-20T07:21:18.149Z,5.20
2019-06-20T07:23:44.506Z,4.22
2019-06-20T07:26:10.745Z,5.08
2019-06-20T07:28:37.017Z,6.00
2019-06-20T07:31:03.361Z,5.40
2019-06-20T07:33:29.753Z,5.40
2019-06-20T07:35:56.190Z,3.75
2019-06-20T07:38:22.449Z,5.05
2019-06-20T07:40:48.822Z,5.22
2019-06-20T07:43:15.072Z,4.22
2019-06-20T07:45:41.529Z,3.58
2019-06-20T07:48:07.777Z,6.80
2019-06-20T07:50:34.140Z,3.42
2019-06-20T07:53:02.391Z,4.37
2019-06-20T07:55:28.644Z,3.42
2019-06-20T07:57:55.006Z,4.45
2019-06-20T08:00:21.719Z,7.20
2019-06-20T08:02:47.958Z,4.92
2019-06-20T08:05:14.997Z,4.80
2019-06-20T08:07:41.366Z,5.78
2019-06-20T08:10:12.444Z,3.87
2019-06-20T08:12:38.857Z,4.75
2019-06-20T08:15:14.844Z,3.45
2019-06-20T08:17:35.850Z,3.37
2019-06-20T08:20:05.613Z,3.45
2019-06-20T08:22:31.846Z,3.33
2019-06-20T08:24:59.037Z,4.87
2019-06-20T08:27:44.068Z,6.37
2019-06-20T08:30:10.521Z,4.85
2019-06-20T08:32:36.782Z,3.12
2019-06-20T08:35:04.818Z,4.05
2019-06-20T08:37:31.059Z,4.10
2019-06-20T08:39:58.416Z,3.08
2019-06-20T08:42:24.969Z,5.97
2019-06-20T08:44:51.314Z,7.45
2019-06-20T08:47:17.637Z,3.20
2019-06-20T08:49:43.912Z,6.58
2019-06-20T08:52:10.156Z,4.37
2019-06-20T08:54:36.501Z,3.60
2019-06-20T08:57:03.989Z,5.12
2019-06-20T08:59:31.024Z,3.62
2019-06-20T09:01:58.797Z,3.75
2019-06-20T09:04:25.310Z,3.55
2019-06-20T09:06:51.557Z,3.25
2019-06-20T09:09:18.006Z,4.90
2019-06-20T09:11:44.262Z,3.60
2019-06-20T09:14:10.516Z,6.42
2019-06-20T09:16:36.875Z,4.33
2019-06-20T09:19:03.636Z,5.80
2019-06-20T09:21:29.793Z,3.60
2019-06-20T09:23:56.233Z,5.70
2019-06-20T09:26:22.615Z,4.53
2019-06-20T09:28:48.949Z,5.75
2019-06-20T09:31:15.187Z,7.05
2019-06-20T09:33:41.664Z,5.20
2019-06-20T09:36:08.142Z,4.30
2019-06-20T09:38:34.405Z,7.97
2019-06-20T09:41:00.864Z,5.75
2019-06-20T09:43:28.091Z,5.12
2019-06-20T09:45:54.566Z,6.20
2019-06-20T09:48:20.817Z,5.33
2019-06-20T09:50:49.301Z,6.25
2019-06-20T09:53:15.426Z,5.17
2019-06-20T09:55:41.896Z,3.90
2019-06-20T09:58:08.321Z,5.28
2019-06-20T10:00:35.685Z,4.78
2019-06-20T10:03:02.249Z,4.47
2019-06-20T10:05:28.651Z,4.17
2019-06-20T10:07:56.465Z,5.50
2019-06-20T10:10:28.153Z,5.15
2019-06-20T10:12:55.902Z,5.58
2019-06-20T10:15:28.444Z,4.65
2019-06-20T10:17:54.958Z,4.25
2019-06-20T10:20:22.405Z,4.70
2019-06-20T10:22:48.761Z,5.90
2019-06-20T10:25:16.110Z,7.55
2019-06-20T10:27:42.456Z,5.08
2019-06-20T10:30:14.327Z,4.33
2019-06-20T10:32:37.643Z,4.40
2019-06-20T10:35:05.589Z,5.78
2019-06-20T10:37:31.981Z,5.17
2019-06-20T10:39:58.225Z,5.45
2019-06-20T10:42:24.485Z,5.10
2019-06-20T10:44:52.114Z,3.98
2019-06-20T10:47:31.474Z,4.95
2019-06-20T10:49:47.789Z,3.90
2019-06-20T10:52:15.526Z,6.20
2019-06-20T10:54:43.024Z,6.50
2019-06-20T10:57:09.732Z,4.40
2019-06-20T10:59:35.981Z,7.20
2019-06-20T11:02:02.333Z,4.97
2019-06-20T11:04:28.693Z,4.12
2019-06-20T11:06:55.042Z,5.03
2019-06-20T11:09:21.295Z,4.15
2019-06-20T11:11:48.844Z,6.97
2019-06-20T11:14:15.671Z,6.08
2019-06-20T11:16:43.389Z,6.65
2019-06-20T11:19:10.876Z,5.42
2019-06-20T11:21:39.515Z,4.03
2019-06-20T11:24:05.321Z,6.12
2019-06-20T11:26:31.568Z,6.15
2019-06-20T11:28:57.917Z,5.35
2019-06-20T11:31:24.289Z,5.50
2019-06-20T11:33:50.545Z,4.47
2019-06-20T11:36:16.889Z,7.37
2019-06-20T11:38:44.519Z,7.05
2019-06-20T11:41:11.170Z,6.25
2019-06-20T11:43:38.390Z,6.28
2019-06-20T11:46:04.805Z,8.73
2019-06-20T11:48:31.262Z,8.10
2019-06-20T11:50:57.724Z,6.50
2019-06-20T11:53:24.065Z,5.50
2019-06-20T11:55:50.517Z,6.30
2019-06-20T11:58:16.984Z,6.00
2019-06-20T12:00:43.433Z,7.42
2019-06-20T12:03:09.877Z,5.30
2019-06-20T12:05:36.264Z,4.62
2019-06-20T12:08:02.723Z,5.50
2019-06-20T12:10:29.062Z,6.90
2019-06-20T12:12:55.326Z,5.53
2019-06-20T12:15:22.394Z,7.95
2019-06-20T12:17:49.368Z,5.72
2019-06-20T12:20:16.727Z,5.05
2019-06-20T12:22:43.614Z,8.35
2019-06-20T12:25:12.027Z,6.10
2019-06-20T12:27:38.809Z,13.32
2019-06-20T12:30:06.994Z,7.22
2019-06-20T12:32:33.246Z,9.90
2019-06-20T12:34:59.504Z,6.05
2019-06-20T12:37:25.737Z,5.95
2019-06-20T12:39:51.991Z,7.25
2019-06-20T12:42:18.233Z,7.22
2019-06-20T12:44:45.901Z,7.95
2019-06-20T12:47:12.444Z,7.10
2019-06-20T12:49:40.124Z,7.83
2019-06-20T12:52:06.745Z,8.30
2019-06-20T12:54:33.010Z,6.67
2019-06-20T12:56:59.257Z,8.53
2019-06-20T12:59:25.511Z,7.70
2019-06-20T13:01:51.957Z,7.10
2019-06-20T13:04:18.209Z,6.97
2019-06-20T13:06:44.657Z,8.53
2019-06-20T13:09:10.904Z,8.23
2019-06-20T13:11:37.631Z,7.75
2019-06-20T13:14:05.422Z,7.25
2019-06-20T13:16:31.778Z,9.08
2019-06-20T13:18:58.028Z,11.55
2019-06-20T13:21:24.325Z,6.67
2019-06-20T13:23:50.674Z,7.12
2019-06-20T13:26:17.021Z,8.48
2019-06-20T13:29:02.867Z,6.65
2019-06-20T13:31:11.565Z,11.85
2019-06-20T13:33:39.046Z,6.65
2019-06-20T13:36:06.060Z,7.60
2019-06-20T13:38:32.418Z,7.62
2019-06-20T13:40:58.756Z,8.53
2019-06-20T13:43:25.109Z,7.80
2019-06-20T13:45:52.168Z,7.62
2019-06-20T13:48:18.609Z,11.18
2019-06-20T13:50:45.382Z,9.28
2019-06-20T13:53:11.822Z,8.03
2019-06-20T13:55:39.460Z,8.20
2019-06-20T13:58:06.423Z,10.03
2019-06-20T14:00:33.472Z,8.85
2019-06-20T14:02:59.833Z,7.92
2019-06-20T14:05:26.290Z,8.75
2019-06-20T14:07:54.337Z,9.40
2019-06-20T14:10:21.028Z,9.25
2019-06-20T14:12:48.638Z,10.55
2019-06-20T14:15:16.031Z,11.93
2019-06-20T14:17:43.228Z,10.53
2019-06-20T14:20:12.050Z,10.55
2019-06-20T14:22:38.377Z,12.03
2019-06-20T14:25:05.866Z,12.00
2019-06-20T14:27:35.025Z,10.30
2019-06-20T14:30:00.506Z,11.55
2019-06-20T14:32:26.769Z,10.65
2019-06-20T14:34:54.255Z,11.97
2019-06-20T14:37:20.808Z,10.38
2019-06-20T14:39:47.041Z,10.55
2019-06-20T14:42:13.393Z,12.80
2019-06-20T14:44:39.647Z,11.57
2019-06-20T14:47:06.414Z,10.28
2019-06-20T14:49:32.725Z,10.03
2019-06-20T14:51:59.075Z,11.22
2019-06-20T14:54:25.714Z,11.38
2019-06-20T14:56:52.061Z,10.70
2019-06-20T14:59:18.313Z,11.43
2019-06-20T15:01:46.039Z,13.90
2019-06-20T15:04:12.734Z,13.10
2019-06-20T15:06:38.972Z,10.98
2019-06-20T15:09:06.629Z,11.60
2019-06-20T15:11:32.887Z,11.40
2019-06-20T15:13:59.154Z,14.55
2019-06-20T15:16:25.552Z,12.05
2019-06-20T15:18:53.757Z,13.15
2019-06-20T15:21:19.843Z,16.65
2019-06-20T15:23:47.300Z,12.07
2019-06-20T15:26:14.142Z,13.03
2019-06-20T15:28:40.383Z,13.08
2019-06-20T15:31:06.991Z,14.33
2019-06-20T15:33:33.343Z,12.60
2019-06-20T15:35:59.573Z,11.95
2019-06-20T15:38:25.911Z,11.20
2019-06-20T15:40:53.407Z,12.80
2019-06-20T15:43:20.230Z,11.68
2019-06-20T15:45:48.387Z,12.43
2019-06-20T15:48:15.052Z,11.90
2019-06-20T15:50:42.022Z,11.83
2019-06-20T15:53:08.357Z,11.65
2019-06-20T15:55:34.709Z,11.93
2019-06-20T15:58:01.253Z,11.12
2019-06-20T16:00:27.724Z,12.28
2019-06-20T16:03:05.853Z,11.90
2019-06-20T16:05:22.127Z,13.50
2019-06-20T16:07:48.481Z,11.83
2019-06-20T16:10:15.233Z,10.93
2019-06-20T16:12:41.678Z,11.65
2019-06-20T16:15:09.520Z,11.45
2019-06-20T16:17:35.997Z,11.18
2019-06-20T16:20:04.141Z,10.50
2019-06-20T16:22:30.385Z,10.43
2019-06-20T16:24:56.738Z,9.08
2019-06-20T16:27:22.980Z,10.50
2019-06-20T16:29:49.337Z,8.13
2019-06-20T16:32:15.861Z,7.45
2019-06-20T16:34:42.118Z,7.37
2019-06-20T16:37:10.363Z,8.28
2019-06-20T16:39:36.525Z,8.75
2019-06-20T16:42:03.179Z,8.78
2019-06-20T16:44:29.533Z,7.70
2019-06-20T16:46:55.873Z,7.62
2019-06-20T16:49:22.125Z,8.85
2019-06-20T16:51:48.414Z,7.83
2019-06-20T16:54:14.624Z,7.60
2019-06-20T16:56:40.979Z,10.35
2019-06-20T16:59:07.330Z,7.83
2019-06-20T17:01:33.591Z,6.30
2019-06-20T17:03:59.824Z,6.10
2019-06-20T17:06:26.074Z,5.97
2019-06-20T17:08:52.313Z,6.97
2019-06-20T17:11:18.675Z,6.33
2019-06-20T17:13:44.924Z,5.65
2019-06-20T17:16:11.265Z,5.15
2019-06-20T17:18:37.517Z,4.72
2019-06-20T17:21:03.969Z,5.70
2019-06-20T17:23:30.322Z,5.08
2019-06-20T17:25:57.058Z,5.33
2019-06-20T17:28:23.294Z,5.97
2019-06-20T17:30:49.639Z,5.60
2019-06-20T17:33:16.570Z,5.15
2019-06-20T17:35:42.922Z,5.60
2019-06-20T17:38:09.285Z,6.30
2019-06-20T17:40:36.745Z,6.05
2019-06-20T17:43:03.508Z,5.40
2019-06-20T17:45:30.149Z,5.67
2019-06-20T17:47:56.501Z,7.28
2019-06-20T17:50:25.789Z,6.05
2019-06-20T17:52:51.401Z,6.10
2019-06-20T17:55:17.796Z,7.15
2019-06-20T17:57:43.998Z,5.65
2019-06-20T18:00:18.303Z,5.97
2019-06-20T18:02:44.764Z,5.95
2019-06-20T18:05:11.918Z,6.08
2019-06-20T18:07:38.266Z,6.28
2019-06-20T18:10:05.646Z,7.47
2019-06-20T18:12:31.914Z,6.12
2019-06-20T18:14:58.353Z,6.08
2019-06-20T18:17:24.629Z,6.25
2019-06-20T18:19:50.981Z,6.87
2019-06-20T18:22:17.335Z,5.97
2019-06-20T18:24:43.606Z,6.00
2019-06-20T18:27:09.846Z,7.22
2019-06-20T18:29:36.210Z,7.65
2019-06-20T18:32:02.873Z,6.65
2019-06-20T18:34:30.500Z,5.42
2019-06-20T18:36:56.841Z,6.53
2019-06-20T18:39:23.490Z,6.37
2019-06-20T18:41:49.762Z,6.03
2019-06-20T18:44:16.218Z,5.75
2019-06-20T18:46:42.493Z,5.45
2019-06-20T18:49:08.833Z,6.47
2019-06-20T18:51:36.069Z,7.28
2019-06-20T18:54:03.360Z,7.95
2019-06-20T18:56:29.710Z,8.50
2019-06-20T18:58:56.061Z,8.80
2019-06-20T19:01:22.408Z,11.10
2019-06-20T19:03:48.690Z,8.95
2019-06-20T19:06:15.133Z,9.58
2019-06-20T19:08:41.401Z,9.50
2019-06-20T19:11:07.833Z,9.80
2019-06-20T19:13:34.178Z,10.18
2019-06-20T19:16:00.478Z,10.32
2019-06-20T19:18:26.939Z,11.50
2019-06-20T19:20:53.277Z,9.20
2019-06-20T19:23:19.533Z,11.30
2019-06-20T19:25:45.856Z,10.72
2019-06-20T19:28:12.142Z,9.35
2019-06-20T19:30:49.936Z,9.00
2019-06-20T19:33:17.081Z,9.25
2019-06-20T19:35:44.384Z,9.93
2019-06-20T19:38:10.849Z,9.55
2019-06-20T19:40:40.922Z,10.63
2019-06-20T19:43:07.261Z,10.23
2019-06-20T19:45:33.518Z,9.55
2019-06-20T19:47:59.861Z,10.32
2019-06-20T19:50:26.309Z,9.78
2019-06-20T19:52:53.062Z,9.90
2019-06-20T19:55:39.565Z,10.88
2019-06-20T19:58:06.456Z,9.65
2019-06-20T20:00:32.894Z,10.25
2019-06-20T20:02:59.345Z,10.70
2019-06-20T20:05:25.845Z,10.08
2019-06-20T20:07:52.295Z,10.58
2019-06-20T20:10:22.354Z,10.23
2019-06-20T20:12:48.925Z,10.75
2019-06-20T20:15:18.986Z,12.45
2019-06-20T20:17:45.351Z,9.83
2019-06-20T20:20:11.706Z,10.85
2019-06-20T20:22:37.945Z,10.53
2019-06-20T20:25:05.995Z,11.18
2019-06-20T20:27:32.246Z,14.87
2019-06-20T20:29:58.502Z,11.93
2019-06-20T20:32:25.020Z,10.90
2019-06-20T20:34:51.437Z,13.60
2019-06-20T20:37:17.717Z,12.03
2019-06-20T20:39:43.969Z,13.60
2019-06-20T20:42:10.293Z,12.13
2019-06-20T20:44:36.529Z,11.78
2019-06-20T20:47:02.988Z,12.35
2019-06-20T20:49:29.354Z,12.50
2019-06-20T20:51:55.617Z,11.90
2019-06-20T20:54:22.062Z,11.63
2019-06-20T20:56:48.554Z,10.48
2019-06-20T20:59:14.995Z,12.33
2019-06-20T21:01:41.392Z,11.60
2019-06-20T21:04:07.636Z,11.18
2019-06-20T21:06:33.904Z,11.97
2019-06-20T21:09:00.227Z,14.30
2019-06-20T21:11:26.541Z,11.22
2019-06-20T21:13:52.838Z,11.08
2019-06-20T21:16:19.287Z,10.70
2019-06-20T21:18:45.647Z,11.35
2019-06-20T21:21:11.894Z,10.95
2019-06-20T21:23:38.266Z,12.07
2019-06-20T21:26:04.621Z,11.55
2019-06-20T21:28:30.857Z,11.45
2019-06-20T21:30:57.122Z,11.85
2019-06-20T21:33:23.361Z,11.73
2019-06-20T21:35:49.613Z,11.90
2019-06-20T21:38:16.278Z,11.97
2019-06-20T21:40:43.136Z,11.60
2019-06-20T21:43:09.389Z,11.80
2019-06-20T21:45:35.742Z,13.15
2019-06-20T21:48:02.236Z,12.90
2019-06-20T21:50:28.553Z,11.55
2019-06-20T21:52:54.913Z,11.40
2019-06-20T21:55:21.257Z,11.83
2019-06-20T21:57:47.623Z,13.60
2019-06-20T22:00:21.713Z,12.63
2019-06-20T22:02:48.261Z,13.13
2019-06-20T22:05:15.026Z,13.75
2019-06-20T22:07:41.501Z,12.93
2019-06-20T22:10:08.557Z,13.00
2019-06-20T22:12:34.815Z,13.65
2019-06-20T22:15:01.191Z,13.53
2019-06-20T22:17:27.466Z,15.08
2019-06-20T22:19:53.809Z,16.30
2019-06-20T22:22:20.056Z,12.82
2019-06-20T22:24:46.518Z,15.53
2019-06-20T22:27:12.766Z,14.47
2019-06-20T22:29:39.111Z,14.80
2019-06-20T22:32:05.625Z,15.20
2019-06-20T22:34:31.977Z,15.10
2019-06-20T22:36:58.237Z,15.03
2019-06-20T22:39:24.656Z,16.37
2019-06-20T22:41:50.957Z,16.70
2019-06-20T22:44:17.218Z,16.65
2019-06-20T22:46:43.467Z,17.37
2019-06-20T22:49:09.817Z,17.70
2019-06-20T22:51:36.170Z,16.48
2019-06-20T22:54:02.815Z,17.67
2019-06-20T22:56:29.436Z,15.30
2019-06-20T22:58:55.699Z,16.10
2019-06-20T23:01:22.062Z,17.75
2019-06-20T23:03:48.413Z,15.58
2019-06-20T23:06:14.800Z,16.80
2019-06-20T23:08:41.043Z,15.15
2019-06-20T23:11:07.386Z,16.10
2019-06-20T23:13:33.658Z,16.02
2019-06-20T23:16:00.013Z,15.60
2019-06-20T23:18:26.377Z,15.40
2019-06-20T23:21:04.130Z,14.75
2019-06-20T23:23:20.974Z,16.32
2019-06-20T23:25:49.226Z,15.20
2019-06-20T23:28:15.473Z,15.68
2019-06-20T23:30:42.033Z,14.90
2019-06-20T23:33:08.301Z,14.30
2019-06-20T23:35:34.723Z,12.70
2019-06-20T23:38:01.224Z,13.65
2019-06-20T23:40:28.008Z,11.48
2019-06-20T23:42:54.280Z,14.95
2019-06-20T23:45:21.031Z,10.60
2019-06-20T23:47:47.385Z,10.43
2019-06-20T23:50:19.919Z,10.78
2019-06-20T23:53:01.764Z,10.68
2019-06-20T23:55:28.015Z,11.35
2019-06-20T23:57:54.366Z,10.40
